Terminal Aerodrome Forecast
Issued by NWS Wichita, KS

Home | Current Version | Previous Version | Text Only | Print | Product List | Glossary Off
Versions: 1 2 3 4 5 6 7 8 9 10 11 12 13 14 15 16 17

000
FTUS43 KICT 241720
TAFICT
TAF
KICT 241720Z 2418/2518 35005KT P6SM BKN150
     FM242100 36011KT P6SM BKN110
     FM250300 36010KT P6SM VCSH BKN050
     FM250500 35011KT 6SM -SHRA OVC035
     FM250700 34011KT 6SM -SHRA OVC015
     FM251200 33008KT P6SM OVC015=

USA.gov is the U.S. government's official web portal to all federal, state and local government web resources and services.